KORS Airport Information

Runway Information
Runway 16 Length 2900 ft width 60 ft
Elevation 31 ft Threshold 0 ft Heading 0
Runway 34 Length 2900 ft Width 60 ft
Elevation 31 ft Threshold 0 ft Heading 0
Airport Frequencies
Airport Navaids
Airport Weather Information & NOTAM
ADDS - METARS form results

(0619 UTC 19 August 2018)
 
METAR text: KORS 190615Z AUTO 00000KT 10SM 15/13 A3010 RMK AO2
Conditions at: KORS (EASTSOUND/ORCAS , WA, US) observed 0615 UTC 19 August 2018
Temperature: 15.0°C (59°F)
Dewpoint: 13.0°C (55°F) [RH = 88%]
Pressure (altimeter): 30.10 inches Hg (1019.4 mb)
Winds: calm
Visibility: 10 or more miles (16+ km)
Ceiling: unknown
Clouds: missing
Weather: automated observation with no human augmentation;
there may or may not be significant weather present at this time

METAR text: KORS 190555Z AUTO 00000KT 10SM 15/13 A3010 RMK AO2
Conditions at: KORS (EASTSOUND/ORCAS , WA, US) observed 0555 UTC 19 August 2018
Temperature: 15.0°C (59°F)
Dewpoint: 13.0°C (55°F) [RH = 88%]
Pressure (altimeter): 30.10 inches Hg (1019.4 mb)
Winds: calm
Visibility: 10 or more miles (16+ km)
Ceiling: unknown
Clouds: missing
Weather: automated observation with no human augmentation;
there may or may not be significant weather present at this time

METAR text: KORS 190535Z AUTO 00000KT 10SM OVC050 15/13 A3010 RMK AO2
Conditions at: KORS (EASTSOUND/ORCAS , WA, US) observed 0535 UTC 19 August 2018
Temperature: 15.0°C (59°F)
Dewpoint: 13.0°C (55°F) [RH = 88%]
Pressure (altimeter): 30.10 inches Hg (1019.4 mb)
Winds: calm
Visibility: 10 or more miles (16+ km)
Ceiling: 5000 feet AGL
Clouds: overcast cloud deck at 5000 feet AGL
Weather: automated observation with no human augmentation;
there may or may not be significant weather present at this time